Tinsdal — V2AJ2 — position and weather

sailwx.info

Track history (hours):
 
Tides and Currents Weather Stations Pressure Air Temp Water Temp Dewpoint Dewpoint Depression Visibility Wind Speed Wind Dir Waves Ship Positions

Tinsdal

Last reported at 2016-Jun-24 19:34 UTC. Time now 2016-Jun-27 09:40 UTC.
Position N 35°56' W 005°17'.

Length 90 m; draft 4 m.

Type: Ship. MMSI: 305573000.

Date/timePositionNaut miles runAvg speedWind from/ knotsBaromVisibWave heightAir tempDewpointWater temp
2016-Jun-24 19:34N 35°56' W 005°17'3 3.1
2016-Jun-24 18:32N 35°55' W 005°21'0 0.0
2016-Jun-24 17:32N 35°55' W 005°21'0 0.1
2016-Jun-24 16:29N 35°55' W 005°21'0 0.1
2016-Jun-24 15:32N 35°55' W 005°21'0 0.0
2016-Jun-24 14:32N 35°55' W 005°21'0 0.0
2016-Jun-24 13:32N 35°55' W 005°21'0 0.0
2016-Jun-24 12:32N 35°55' W 005°21'0 0.0
2016-Jun-24 11:29N 35°55' W 005°21'0 0.0
2016-Jun-24 10:32N 35°55' W 005°21'0 0.0
2016-Jun-24 09:32N 35°55' W 005°21'0 0.0
2016-Jun-24 08:32N 35°55' W 005°21'0 0.0
2016-Jun-24 07:29N 35°55' W 005°21'0 0.0
2016-Jun-24 04:32N 35°55' W 005°21'0 0.0
2016-Jun-24 03:29N 35°55' W 005°21'0 0.0
2016-Jun-24 02:32N 35°55' W 005°21'0 0.0
2016-Jun-24 01:32N 35°55' W 005°21'0 0.0
2016-Jun-24 00:32N 35°55' W 005°21'0 0.2
2016-Jun-23 23:33N 35°55' W 005°20'2 2.1
2016-Jun-23 22:31N 35°54' W 005°18'0 0.0
2016-Jun-23 21:31N 35°54' W 005°18'0 0.0
2016-Jun-23 20:28N 35°54' W 005°18'0 0.0
2016-Jun-23 19:31N 35°54' W 005°18'0 0.0
2016-Jun-23 18:31N 35°54' W 005°18'1 0.7
2016-Jun-23 17:33N 35°54' W 005°19'1 0.7
2016-Jun-23 16:31N 35°54' W 005°20'0 0.0
2016-Jun-23 15:31N 35°54' W 005°20'0 0.0
2016-Jun-23 14:31N 35°54' W 005°20'0 0.0
2016-Jun-23 13:31N 35°54' W 005°20'0 0.0
2016-Jun-23 12:31N 35°54' W 005°20'0 0.0
2016-Jun-23 11:31N 35°54' W 005°20'0 0.0
2016-Jun-23 10:31N 35°54' W 005°20'0 0.0
2016-Jun-23 09:34N 35°54' W 005°20'6 6.0
2016-Jun-23 08:33N 36°00' W 005°20'11 2.1
2016-Jun-23 03:26N 36°11' W 005°25'0 0.0
2016-Jun-23 02:26N 36°11' W 005°25'0 0.0
2016-Jun-23 01:32N 36°11' W 005°25'0 0.0
2016-Jun-23 00:14N 36°11' W 005°25'0 0.0
2016-Jun-22 23:32N 36°11' W 005°25'0 0.0
2016-Jun-22 22:32N 36°11' W 005°25'0 0.0
2016-Jun-22 21:32N 36°11' W 005°25'0 0.0
2016-Jun-22 08:26N 36°11' W 005°25'0 0.0
2016-Jun-22 06:08N 36°11' W 005°25'0 0.0
2016-Jun-22 05:32N 36°11' W 005°25'0 0.0
2016-Jun-22 04:32N 36°11' W 005°25'0 0.0
2016-Jun-22 03:32N 36°11' W 005°25'0 0.0
2016-Jun-22 02:32N 36°11' W 005°25'0 0.0
2016-Jun-22 00:20N 36°11' W 005°25'0 0.0
2016-Jun-21 15:32N 36°10' W 005°25'4 4.6
2016-Jun-21 14:34N 36°06' W 005°23'5 5.1
2016-Jun-21 13:34N 36°01' W 005°23'132 6.8
2016-Jun-20 18:04N 36°17' W 008°05'5 9.2
2016-Jun-20 17:31N 36°18' W 008°11'13 9.1
2016-Jun-20 16:08N 36°22' W 008°27'5 9.1
2016-Jun-20 15:33N 36°23' W 008°33'10 9.5
2016-Jun-20 14:33N 36°26' W 008°44'9 9.4
2016-Jun-20 13:33N 36°28' W 008°56'10 9.2
2016-Jun-20 12:29N 36°31' W 009°07'9 8.9
2016-Jun-20 11:28N 36°33' W 009°18'8 9.3
2016-Jun-20 10:33N 36°39' W 009°26'9 9.3
2016-Jun-20 09:33N 36°46' W 009°33'12 9.5
2016-Jun-20 08:18N 36°58' W 009°37'18 9.4
2016-Jun-20 06:25N 37°15' W 009°43'10 9.2
2016-Jun-20 05:18N 37°25' W 009°45'7 8.9
2016-Jun-20 04:33N 37°31' W 009°47'9 9.1
2016-Jun-20 03:32N 37°40' W 009°50'9 9.1
2016-Jun-20 02:31N 37°49' W 009°52'9 9.2
2016-Jun-20 01:33N 37°58' W 009°55'14 9.2
2016-Jun-20 00:03N 38°11' W 009°59'6 9.5
2016-Jun-19 23:26N 38°17' W 010°01'9 9.6
2016-Jun-19 22:33N 38°25' W 010°04'10 9.6
2016-Jun-19 21:33N 38°35' W 010°06'9 9.2
2016-Jun-19 20:32N 38°44' W 010°08'  
2016-Jun-16 04:30N 52°16' W 005°47'8 8.1
2016-Jun-16 03:33N 52°23' W 005°45'87 9.5
2016-Jun-15 18:24N 53°50' W 005°56'8 9.1
2016-Jun-15 17:33N 53°57' W 006°01'  
Track history (hours):
 
Tides and Currents Weather Stations Pressure Air Temp Water Temp Dewpoint Dewpoint Depression Visibility Wind Speed Wind Dir Waves Ship Positions

Tinsdal

Last reported at 2016-Jun-24 19:34 UTC. Time now 2016-Jun-27 09:40 UTC.
Position N 35°56' W 005°17'.

Length 90 m; draft 4 m.

Type: Ship. MMSI: 305573000.

Date/timePositionNaut miles runAvg speedWind from/ knotsBaromVisibWave heightAir tempDewpointWater temp
2016-Jun-24 19:34N 35°56' W 005°17'3 3.1
2016-Jun-24 18:32N 35°55' W 005°21'0 0.0
2016-Jun-24 17:32N 35°55' W 005°21'0 0.1
2016-Jun-24 16:29N 35°55' W 005°21'0 0.1
2016-Jun-24 15:32N 35°55' W 005°21'0 0.0
2016-Jun-24 14:32N 35°55' W 005°21'0 0.0
2016-Jun-24 13:32N 35°55' W 005°21'0 0.0
2016-Jun-24 12:32N 35°55' W 005°21'0 0.0
2016-Jun-24 11:29N 35°55' W 005°21'0 0.0
2016-Jun-24 10:32N 35°55' W 005°21'0 0.0
2016-Jun-24 09:32N 35°55' W 005°21'0 0.0
2016-Jun-24 08:32N 35°55' W 005°21'0 0.0
2016-Jun-24 07:29N 35°55' W 005°21'0 0.0
2016-Jun-24 04:32N 35°55' W 005°21'0 0.0
2016-Jun-24 03:29N 35°55' W 005°21'0 0.0
2016-Jun-24 02:32N 35°55' W 005°21'0 0.0
2016-Jun-24 01:32N 35°55' W 005°21'0 0.0
2016-Jun-24 00:32N 35°55' W 005°21'0 0.2
2016-Jun-23 23:33N 35°55' W 005°20'2 2.1
2016-Jun-23 22:31N 35°54' W 005°18'0 0.0
2016-Jun-23 21:31N 35°54' W 005°18'0 0.0
2016-Jun-23 20:28N 35°54' W 005°18'0 0.0
2016-Jun-23 19:31N 35°54' W 005°18'0 0.0
2016-Jun-23 18:31N 35°54' W 005°18'1 0.7
2016-Jun-23 17:33N 35°54' W 005°19'1 0.7
2016-Jun-23 16:31N 35°54' W 005°20'0 0.0
2016-Jun-23 15:31N 35°54' W 005°20'0 0.0
2016-Jun-23 14:31N 35°54' W 005°20'0 0.0
2016-Jun-23 13:31N 35°54' W 005°20'0 0.0
2016-Jun-23 12:31N 35°54' W 005°20'0 0.0
2016-Jun-23 11:31N 35°54' W 005°20'0 0.0
2016-Jun-23 10:31N 35°54' W 005°20'0 0.0
2016-Jun-23 09:34N 35°54' W 005°20'6 6.0
2016-Jun-23 08:33N 36°00' W 005°20'11 2.1
2016-Jun-23 03:26N 36°11' W 005°25'0 0.0
2016-Jun-23 02:26N 36°11' W 005°25'0 0.0
2016-Jun-23 01:32N 36°11' W 005°25'0 0.0
2016-Jun-23 00:14N 36°11' W 005°25'0 0.0
2016-Jun-22 23:32N 36°11' W 005°25'0 0.0
2016-Jun-22 22:32N 36°11' W 005°25'0 0.0
2016-Jun-22 21:32N 36°11' W 005°25'0 0.0
2016-Jun-22 08:26N 36°11' W 005°25'0 0.0
2016-Jun-22 06:08N 36°11' W 005°25'0 0.0
2016-Jun-22 05:32N 36°11' W 005°25'0 0.0
2016-Jun-22 04:32N 36°11' W 005°25'0 0.0
2016-Jun-22 03:32N 36°11' W 005°25'0 0.0
2016-Jun-22 02:32N 36°11' W 005°25'0 0.0
2016-Jun-22 00:20N 36°11' W 005°25'0 0.0
2016-Jun-21 15:32N 36°10' W 005°25'4 4.6
2016-Jun-21 14:34N 36°06' W 005°23'5 5.1
2016-Jun-21 13:34N 36°01' W 005°23'132 6.8
2016-Jun-20 18:04N 36°17' W 008°05'5 9.2
2016-Jun-20 17:31N 36°18' W 008°11'13 9.1
2016-Jun-20 16:08N 36°22' W 008°27'5 9.1
2016-Jun-20 15:33N 36°23' W 008°33'10 9.5
2016-Jun-20 14:33N 36°26' W 008°44'9 9.4
2016-Jun-20 13:33N 36°28' W 008°56'10 9.2
2016-Jun-20 12:29N 36°31' W 009°07'9 8.9
2016-Jun-20 11:28N 36°33' W 009°18'8 9.3
2016-Jun-20 10:33N 36°39' W 009°26'9 9.3
2016-Jun-20 09:33N 36°46' W 009°33'12 9.5
2016-Jun-20 08:18N 36°58' W 009°37'18 9.4
2016-Jun-20 06:25N 37°15' W 009°43'10 9.2
2016-Jun-20 05:18N 37°25' W 009°45'7 8.9
2016-Jun-20 04:33N 37°31' W 009°47'9 9.1
2016-Jun-20 03:32N 37°40' W 009°50'9 9.1
2016-Jun-20 02:31N 37°49' W 009°52'9 9.2
2016-Jun-20 01:33N 37°58' W 009°55'14 9.2
2016-Jun-20 00:03N 38°11' W 009°59'6 9.5
2016-Jun-19 23:26N 38°17' W 010°01'9 9.6
2016-Jun-19 22:33N 38°25' W 010°04'10 9.6
2016-Jun-19 21:33N 38°35' W 010°06'9 9.2
2016-Jun-19 20:32N 38°44' W 010°08'  
2016-Jun-16 04:30N 52°16' W 005°47'8 8.1
2016-Jun-16 03:33N 52°23' W 005°45'87 9.5
2016-Jun-15 18:24N 53°50' W 005°56'8 9.1
2016-Jun-15 17:33N 53°57' W 006°01'  

Dump ship's entire track history